createdAt,value
2023-04-16T00:18:37.113Z,6.7
2023-04-16T00:48:53.804Z,5.3
2023-04-16T01:19:12.957Z,12
2023-04-16T01:49:36.030Z,8.7
2023-04-16T02:50:13.642Z,11.1
2023-04-16T03:20:31.905Z,13
2023-04-16T03:50:52.001Z,11.4
2023-04-16T04:21:09.957Z,9.4
2023-04-16T04:51:31.658Z,8.8
2023-04-16T05:21:53.515Z,12.5
2023-04-16T05:52:14.785Z,13.6
2023-04-16T06:22:35.340Z,12.6
2023-04-16T06:52:54.644Z,17.6
2023-04-16T07:23:14.667Z,10.1
2023-04-16T07:53:32.713Z,9.1
2023-04-16T08:23:50.205Z,9.7
2023-04-16T08:54:08.506Z,11.1
2023-04-16T09:24:28.436Z,20.7
2023-04-16T09:54:50.536Z,14.6
2023-04-16T10:25:19.399Z,14.1
2023-04-16T10:55:44.371Z,15.4
2023-04-16T11:25:55.846Z,19.2
2023-04-16T12:26:48.211Z,22.2
2023-04-16T12:57:09.278Z,20.3
2023-04-16T13:27:40.809Z,12.3
2023-04-16T13:58:03.779Z,10.2
2023-04-16T14:59:37.746Z,8.2
2023-04-16T15:30:02.504Z,7.2
2023-04-16T16:00:41.437Z,6.8
2023-04-16T16:30:59.040Z,7.7
2023-04-16T17:01:19.688Z,13.9
2023-04-16T18:02:18.981Z,13.4
2023-04-16T18:32:35.421Z,15.6
2023-04-16T19:03:07.407Z,15.7
2023-04-16T19:33:29.524Z,16.5
2023-04-16T20:03:53.588Z,14.4
2023-04-16T20:34:15.881Z,15.7
2023-04-16T21:04:37.087Z,15.6
2023-04-16T21:35:07.934Z,15.3
2023-04-16T22:05:28.400Z,12.1
2023-04-16T22:35:48.605Z,9.9
2023-04-16T23:06:08.827Z,10.9
2023-04-16T23:36:25.560Z,10.7
